EST,Max TemperatureF,Mean TemperatureF,Min TemperatureF,Max Dew PointF,MeanDew PointF,Min DewpointF,Max Humidity, Mean Humidity, Min Humidity, Max Sea Level PressureIn, Mean Sea Level PressureIn, Min Sea Level PressureIn, Max VisibilityMiles, Mean VisibilityMiles, Min VisibilityMiles, Max Wind SpeedMPH, Mean Wind SpeedMPH, Max Gust SpeedMPH,PrecipitationIn, CloudCover, Events, WindDirDegrees
2013-2-1,33,29,24,15,9,5,54,42,34,30.08,29.82,29.64,10,10,10,21,14,30,0.00,2,,278
2013-2-2,32,26,19,27,14,2,92,60,36,30.25,30.13,30.04,10,8,2,18,9,25,0.00,4,Snow,257
2013-2-3,32,28,24,30,25,20,100,87,78,30.04,29.83,29.65,10,6,1,16,6,26,0.01,8,Snow,324
2013-2-4,32,28,23,21,12,6,85,56,37,29.94,29.78,29.67,10,9,2,18,11,29,0.00,3,Snow,291
2013-2-5,30,27,24,30,21,9,100,80,53,30.02,29.95,29.90,10,6,2,8,5,,0.01,8,Snow,13
2013-2-6,39,34,28,32,26,8,100,77,41,30.25,29.99,29.88,10,9,4,15,5,20,0.00,6,Snow,309
2013-2-7,28,24,21,22,13,6,80,59,39,30.50,30.44,30.29,10,10,10,15,7,23,0.00,3,,358
2013-2-8,35,32,30,34,30,22,100,87,72,30.44,29.94,29.28,10,3,0,39,15,63,1.07,8,Fog-Rain-Snow,73
2013-2-9,30,24,19,23,21,16,100,92,80,30.08,29.68,29.20,10,2,0,34,28,58,0.18,8,Fog-Snow,345
2013-2-10,34,24,10,20,15,10,100,78,44,30.37,30.30,30.12,10,10,9,15,10,25,0.00,0,Snow,301
2013-2-11,45,30,14,45,37,11,100,96,84,30.36,29.90,29.60,10,4,0,15,6,28,0.39,5,Fog-Rain,201
2013-2-12,46,42,35,45,33,25,100,73,44,29.86,29.69,29.58,10,9,1,20,10,32,0.00,2,,280
2013-2-13,41,34,28,29,25,22,92,69,47,29.87,29.80,29.68,10,10,10,12,5,,0.00,1,,263
2013-2-14,42,35,28,36,30,21,100,85,43,30.02,29.80,29.66,10,7,0,12,6,20,0.18,4,Fog-Snow,355
2013-2-15,45,36,26,38,33,24,100,88,74,30.05,30.00,29.95,10,8,2,13,5,22,0.00,0,,191
2013-2-16,39,32,26,37,31,25,100,94,79,29.94,29.84,29.60,10,6,0,18,5,29,0.01,6,Fog-Rain,358
2013-2-17,35,28,19,34,21,2,96,80,37,29.62,29.37,29.21,10,3,0,31,22,51,0.05,8,Fog-Rain-Snow,328
2013-2-18,33,25,17,5,2,0,50,38,26,30.16,29.93,29.64,10,10,9,22,16,33,0.00,1,Snow,288
2013-2-19,46,34,23,46,34,7,100,79,41,30.16,29.87,29.59,10,7,2,20,9,39,0.59,5,Rain,198
2013-2-20,42,35,28,43,26,9,100,69,37,29.78,29.62,29.54,10,8,0,17,6,28,0.00,5,Fog-Rain,267
2013-2-21,34,30,27,25,16,12,70,54,42,30.07,29.86,29.77,10,10,10,22,13,33,0.00,5,,310
2013-2-22,37,34,32,28,26,22,79,69,60,30.34,30.27,30.10,10,10,10,20,12,30,0.00,8,,3
2013-2-23,39,36,32,39,32,28,100,84,68,30.32,30.13,29.84,10,9,5,13,3,20,0.31,8,Rain,120
2013-2-24,69,51,33,48,39,33,100,96,46,29.82,29.68,29.54,10,5,2,22,14,32,1.21,8,Rain-Snow,32
2013-2-25,42,34,26,34,29,24,100,80,53,30.24,30.03,29.82,10,9,3,16,12,24,0.03,4,Snow,360
2013-2-26,44,32,21,36,27,19,92,74,47,30.32,30.25,30.12,10,10,10,10,3,17,0.00,2,,93
2013-2-27,46,44,41,45,43,36,100,95,79,30.08,29.74,29.54,10,4,0,25,14,43,0.74,8,Fog-Rain,113
2013-2-28,44,40,37,43,38,36,100,92,79,29.64,29.57,29.49,10,8,1,16,7,,0.00,7,Rain,268